createdAt,value
2019-02-08T00:01:00.850Z,3.4
2019-02-08T00:04:00.120Z,4.4
2019-02-08T00:07:03.378Z,3.5
2019-02-08T00:09:59.908Z,3.9
2019-02-08T00:12:59.902Z,3.8
2019-02-08T00:16:00.473Z,4.2
2019-02-08T00:18:59.943Z,3.6
2019-02-08T00:22:02.562Z,3.6
2019-02-08T00:25:00.893Z,3.6
2019-02-08T00:28:00.176Z,3.2
2019-02-08T00:30:59.697Z,3.6
2019-02-08T00:33:59.961Z,3.3
2019-02-08T00:37:02.774Z,4.1
2019-02-08T00:40:00.128Z,3.8
2019-02-08T00:43:00.192Z,3.5
2019-02-08T00:46:00.155Z,3.7
2019-02-08T00:49:00.570Z,4.1
2019-02-08T00:52:02.984Z,4
2019-02-08T00:54:59.862Z,3.7
2019-02-08T00:58:00.596Z,3.2
2019-02-08T01:00:59.903Z,3.3
2019-02-08T01:04:00.080Z,3.6
2019-02-08T01:07:02.986Z,4.2
2019-02-08T01:10:01.066Z,3.4
2019-02-08T01:13:00.333Z,3.4
2019-02-08T01:16:00.054Z,3.4
2019-02-08T01:19:00.458Z,3.4
2019-02-08T01:21:59.949Z,3.5
2019-02-08T01:25:00.038Z,3.4
2019-02-08T01:28:00.477Z,3.3
2019-02-08T01:31:00.241Z,4.3
2019-02-08T01:34:00.855Z,3.4
2019-02-08T01:37:00.127Z,3.3
2019-02-08T01:40:01.665Z,4
2019-02-08T01:43:00.282Z,3.9
2019-02-08T01:45:59.817Z,3.3
2019-02-08T01:49:00.111Z,3.1
2019-02-08T01:52:00.129Z,3.5
2019-02-08T01:54:59.904Z,3.9
2019-02-08T01:57:59.934Z,3.7
2019-02-08T02:00:59.756Z,3.3
2019-02-08T02:04:00.106Z,3.3
2019-02-08T02:06:59.753Z,3.3
2019-02-08T02:09:59.805Z,3.3
2019-02-08T02:12:59.696Z,3.4
2019-02-08T02:16:00.294Z,3.3
2019-02-08T02:18:59.805Z,3.3
2019-02-08T02:22:00.678Z,3.3
2019-02-08T02:25:00.049Z,3.1
2019-02-08T02:27:59.672Z,3.2
2019-02-08T02:31:00.096Z,3.1
2019-02-08T02:33:59.872Z,3.3
2019-02-08T02:37:00.455Z,3.2
2019-02-08T02:40:00.036Z,2.9
2019-02-08T02:43:00.097Z,3.3
2019-02-08T02:45:59.797Z,3.2
2019-02-08T02:48:59.948Z,3.2
2019-02-08T02:51:59.537Z,3
2019-02-08T02:54:59.847Z,3.5
2019-02-08T02:57:59.788Z,3
2019-02-08T03:01:00.469Z,3.6
2019-02-08T03:04:00.393Z,2.9
2019-02-08T03:07:00.180Z,3
2019-02-08T03:10:00.430Z,2.8
2019-02-08T03:13:00.391Z,3
2019-02-08T03:15:59.847Z,3.2
2019-02-08T03:18:59.844Z,3.1
2019-02-08T03:21:59.784Z,2.9
2019-02-08T03:24:59.877Z,3.2
2019-02-08T03:27:59.924Z,3
2019-02-08T03:31:00.187Z,3
2019-02-08T03:34:00.029Z,3.7
2019-02-08T03:37:00.187Z,3.3
2019-02-08T03:40:00.456Z,3.1
2019-02-08T03:42:59.949Z,3
2019-02-08T03:46:00.137Z,3
2019-02-08T03:49:00.536Z,3.1
2019-02-08T03:51:59.907Z,3
2019-02-08T03:55:00.420Z,2.8
2019-02-08T03:58:00.117Z,2.9
2019-02-08T04:01:00.451Z,2.9
2019-02-08T04:04:00.139Z,2.9
2019-02-08T04:07:00.428Z,3.4
2019-02-08T04:09:59.866Z,3.2
2019-02-08T04:12:59.916Z,2.9
2019-02-08T04:16:00.128Z,2.9
2019-02-08T04:18:59.649Z,2.8
2019-02-08T04:21:59.917Z,3.2
2019-02-08T04:24:59.954Z,2.9
2019-02-08T04:28:00.535Z,3.1
2019-02-08T04:31:00.032Z,2.8
2019-02-08T04:33:59.902Z,3.1
2019-02-08T04:37:00.188Z,2.8
2019-02-08T04:40:00.545Z,2.8
2019-02-08T04:43:00.194Z,3
2019-02-08T04:46:00.031Z,2.9
2019-02-08T04:48:59.593Z,2.8
2019-02-08T04:51:59.971Z,3
2019-02-08T04:54:59.750Z,2.9
2019-02-08T04:58:00.155Z,3.2
2019-02-08T05:01:00.750Z,2.6
2019-02-08T05:04:00.394Z,2.7
2019-02-08T05:06:59.781Z,3.2
2019-02-08T05:10:00.687Z,2.7
2019-02-08T05:12:59.699Z,2.4
2019-02-08T05:15:59.877Z,3.5
2019-02-08T05:18:59.722Z,3
2019-02-08T05:21:59.914Z,2.8
2019-02-08T05:24:59.879Z,2.6
2019-02-08T05:28:00.024Z,2.8
2019-02-08T05:31:00.091Z,2.4
2019-02-08T05:33:59.835Z,2.6
2019-02-08T05:37:01.612Z,2.3
2019-02-08T05:39:59.851Z,3.2
2019-02-08T05:42:59.861Z,2.5
2019-02-08T05:46:00.065Z,2.4
2019-02-08T05:49:00.178Z,2.4
2019-02-08T05:52:00.121Z,2.5
2019-02-08T05:54:59.752Z,2.4
2019-02-08T05:57:59.667Z,2.5
2019-02-08T06:01:01.415Z,2.4
2019-02-08T06:04:00.020Z,2.2
2019-02-08T06:06:59.706Z,2.5
2019-02-08T06:10:00.041Z,2.4
2019-02-08T06:13:00.158Z,2.4
2019-02-08T06:15:59.909Z,2.9
2019-02-08T06:19:00.363Z,2.5
2019-02-08T06:22:00.142Z,2.4
2019-02-08T06:25:05.364Z,2.4
2019-02-08T06:28:00.377Z,2.4
2019-02-08T06:31:00.727Z,2.3
2019-02-08T06:33:59.855Z,2.2
2019-02-08T06:36:59.926Z,2.5
2019-02-08T06:40:00.554Z,2.4
2019-02-08T06:43:00.009Z,2.2
2019-02-08T06:45:59.891Z,2.4
2019-02-08T06:49:00.498Z,2.4
2019-02-08T06:51:59.637Z,2.2
2019-02-08T06:54:59.929Z,2.3
2019-02-08T06:57:59.857Z,2.3
2019-02-08T07:00:59.767Z,2.2
2019-02-08T07:04:01.557Z,2.1
2019-02-08T07:06:59.792Z,2.2
2019-02-08T07:09:59.995Z,2.1
2019-02-08T07:13:00.188Z,2.2
2019-02-08T07:15:59.630Z,2.3
2019-02-08T07:18:59.894Z,2.3
2019-02-08T07:22:00.234Z,2.3
2019-02-08T07:25:00.147Z,2
2019-02-08T07:27:59.964Z,2.1
2019-02-08T07:31:00.036Z,2.2
2019-02-08T07:33:59.610Z,2.2
2019-02-08T07:36:59.952Z,2.3
2019-02-08T07:40:00.365Z,2.1
2019-02-08T07:43:01.080Z,2
2019-02-08T07:45:59.618Z,2.2
2019-02-08T07:49:01.639Z,2.2
2019-02-08T07:52:00.148Z,2.2
2019-02-08T07:55:01.434Z,2.4
2019-02-08T07:57:59.865Z,2
2019-02-08T08:00:59.751Z,2
2019-02-08T08:04:02.011Z,2.2
2019-02-08T08:06:59.819Z,2.3
2019-02-08T08:09:59.979Z,2.2
2019-02-08T08:13:00.017Z,2.1
2019-02-08T08:16:00.150Z,1.8
2019-02-08T08:19:00.252Z,2.1
2019-02-08T08:22:00.276Z,2
2019-02-08T08:25:00.286Z,2
2019-02-08T08:28:00.088Z,1.9
2019-02-08T08:31:00.159Z,2.3
2019-02-08T08:33:59.738Z,2.2
2019-02-08T08:36:59.658Z,1.9
2019-02-08T08:39:59.676Z,2.1
2019-02-08T08:43:00.116Z,2.1
2019-02-08T08:45:59.642Z,2.1
2019-02-08T08:49:00.143Z,5.4
2019-02-08T08:51:59.889Z,2
2019-02-08T08:54:59.892Z,2
2019-02-08T08:58:00.132Z,1.9
2019-02-08T09:01:00.148Z,2
2019-02-08T09:03:59.548Z,2
2019-02-08T09:07:00.272Z,4.4
2019-02-08T09:09:59.870Z,3.7
2019-02-08T09:12:59.833Z,7.1
2019-02-08T09:16:00.019Z,2.9
2019-02-08T09:18:59.774Z,2.5
2019-02-08T09:21:59.755Z,3.6
2019-02-08T09:24:59.518Z,2.1
2019-02-08T09:28:00.772Z,2.5
2019-02-08T09:30:59.995Z,2.3
2019-02-08T09:33:59.448Z,2.6
2019-02-08T09:37:01.445Z,2.1
2019-02-08T09:39:59.648Z,2.6
2019-02-08T09:42:59.731Z,3.5
2019-02-08T09:46:00.151Z,5.3
2019-02-08T09:48:59.968Z,5.5
2019-02-08T09:51:59.663Z,7
2019-02-08T09:54:59.637Z,4
2019-02-08T09:57:59.851Z,2.8
2019-02-08T10:01:00.047Z,3.3
2019-02-08T10:04:00.282Z,3.3
2019-02-08T10:06:59.564Z,5
2019-02-08T10:09:59.798Z,4.3
2019-02-08T10:12:59.475Z,2.8
2019-02-08T10:16:00.072Z,3.4
2019-02-08T10:18:59.890Z,4.3
2019-02-08T10:21:59.653Z,3.4
2019-02-08T10:25:00.903Z,4.8
2019-02-08T10:28:00.131Z,4.9
2019-02-08T10:30:59.623Z,2.7
2019-02-08T10:33:59.587Z,5.7
2019-02-08T10:37:00.038Z,3.2
2019-02-08T10:39:59.849Z,3.9
2019-02-08T10:43:01.535Z,3.7
2019-02-08T10:46:00.157Z,4.3
2019-02-08T10:49:00.091Z,3.2
2019-02-08T10:51:59.925Z,3.5
2019-02-08T10:54:59.866Z,4.3
2019-02-08T10:57:59.588Z,7.5
2019-02-08T11:01:00.187Z,4.7
2019-02-08T11:03:59.779Z,3.3
2019-02-08T11:07:00.066Z,4.5
2019-02-08T11:10:00.373Z,8.7
2019-02-08T11:12:59.925Z,4.9
2019-02-08T11:16:00.185Z,4.8
2019-02-08T11:19:00.393Z,3.1
2019-02-08T11:22:00.046Z,3.9
2019-02-08T11:24:59.730Z,2.8
2019-02-08T11:28:00.035Z,3.9
2019-02-08T11:30:59.642Z,4.4
2019-02-08T11:33:59.780Z,7.3
2019-02-08T11:36:59.978Z,2.9
2019-02-08T11:39:59.545Z,2.5
2019-02-08T11:43:00.069Z,3
2019-02-08T11:45:59.683Z,4.5
2019-02-08T11:49:01.402Z,2.8
2019-02-08T11:52:00.337Z,3.1
2019-02-08T11:54:59.551Z,7.8
2019-02-08T11:58:00.003Z,4.3
2019-02-08T12:00:59.584Z,2.3
2019-02-08T12:04:01.380Z,3.6
2019-02-08T12:06:59.544Z,3.1
2019-02-08T12:10:01.422Z,2.2
2019-02-08T12:12:59.690Z,2.2
2019-02-08T12:15:59.627Z,3.4
2019-02-08T12:19:00.104Z,3.6
2019-02-08T12:22:00.073Z,3
2019-02-08T12:25:00.048Z,1.9
2019-02-08T12:28:00.353Z,2.2
2019-02-08T12:31:01.532Z,3.1
2019-02-08T12:34:00.129Z,2.4
2019-02-08T12:36:59.324Z,2.8
2019-02-08T12:40:01.361Z,2.2
2019-02-08T12:42:59.485Z,2.9
2019-02-08T12:45:59.601Z,3.2
2019-02-08T12:48:59.560Z,3.1
2019-02-08T12:51:59.954Z,2.8
2019-02-08T12:54:59.941Z,2.3
2019-02-08T12:58:00.162Z,2.8
2019-02-08T13:01:00.005Z,1.5
2019-02-08T13:03:59.981Z,2.6
2019-02-08T13:07:01.356Z,4
2019-02-08T13:09:59.505Z,1.9
2019-02-08T13:13:00.019Z,3.4
2019-02-08T13:15:59.395Z,4.2
2019-02-08T13:18:59.399Z,5.1
2019-02-08T13:21:59.600Z,5.9
2019-02-08T13:24:59.763Z,6
2019-02-08T13:28:00.097Z,6.5
2019-02-08T13:30:59.916Z,4.3
2019-02-08T13:34:00.348Z,5.6
2019-02-08T13:37:00.059Z,8.6
2019-02-08T13:39:59.977Z,6.8
2019-02-08T13:43:00.551Z,6.8
2019-02-08T13:45:59.669Z,7.5
2019-02-08T13:48:59.960Z,9
2019-02-08T13:51:59.631Z,11.4
2019-02-08T13:54:59.533Z,7.2
2019-02-08T13:58:00.043Z,7.2
2019-02-08T14:01:00.522Z,9.6
2019-02-08T14:03:59.543Z,10.1
2019-02-08T14:06:59.529Z,9
2019-02-08T14:09:59.914Z,9
2019-02-08T14:13:01.465Z,9.7
2019-02-08T14:15:59.978Z,8.4
2019-02-08T14:18:59.735Z,9.1
2019-02-08T14:21:59.553Z,8.7
2019-02-08T14:24:59.904Z,10.3
2019-02-08T14:27:59.820Z,9.9
2019-02-08T14:30:59.854Z,7.3
2019-02-08T14:33:59.953Z,8.2
2019-02-08T14:36:59.986Z,9.1
2019-02-08T14:39:59.918Z,8.1
2019-02-08T14:43:00.400Z,11
2019-02-08T14:45:59.457Z,8.8
2019-02-08T14:49:00.272Z,7
2019-02-08T14:52:01.453Z,5.9
2019-02-08T14:55:00.366Z,6.3
2019-02-08T14:57:59.378Z,6.4
2019-02-08T15:00:59.395Z,6.9
2019-02-08T15:03:59.959Z,6.6
2019-02-08T15:06:59.919Z,6.6
2019-02-08T15:09:59.865Z,6.9
2019-02-08T15:13:00.736Z,6.9
2019-02-08T15:16:00.055Z,6
2019-02-08T15:18:59.873Z,7.5
2019-02-08T15:22:00.324Z,8.2
2019-02-08T15:24:59.950Z,6.9
2019-02-08T15:27:59.975Z,6.5
2019-02-08T15:31:01.679Z,6.3
2019-02-08T15:34:00.093Z,5.8
2019-02-08T15:36:59.824Z,8.4
2019-02-08T15:40:00.444Z,8.4
2019-02-08T15:42:59.982Z,7.7
2019-02-08T15:46:00.302Z,5.5
2019-02-08T15:49:00.612Z,7.3
2019-02-08T15:52:00.019Z,6
2019-02-08T15:55:00.451Z,7.2
2019-02-08T15:57:59.723Z,5.4
2019-02-08T16:01:00.429Z,6.9
2019-02-08T16:03:59.838Z,5.4
2019-02-08T16:06:59.804Z,5.3
2019-02-08T16:09:59.898Z,6.2
2019-02-08T16:12:59.855Z,6.6
2019-02-08T16:15:59.880Z,5.5
2019-02-08T16:18:59.784Z,6.4
2019-02-08T16:22:00.018Z,5.6
2019-02-08T16:24:59.329Z,5.9
2019-02-08T16:27:59.555Z,4.7
2019-02-08T16:30:59.968Z,5.8
2019-02-08T16:34:00.730Z,4.6
2019-02-08T16:37:04.152Z,7.3
2019-02-08T16:39:59.421Z,4.4
2019-02-08T16:42:59.404Z,5.3
2019-02-08T16:45:59.309Z,5.2
2019-02-08T16:48:59.324Z,4.7
2019-02-08T16:51:59.584Z,4.3
2019-02-08T16:55:00.365Z,4.7
2019-02-08T16:57:59.281Z,4.8
2019-02-08T17:00:59.549Z,3.9
2019-02-08T17:03:59.934Z,4.8
2019-02-08T17:06:59.855Z,3.9
2019-02-08T17:10:04.852Z,5.7
2019-02-08T17:12:59.939Z,5.2
2019-02-08T17:16:01.370Z,4.3
2019-02-08T17:18:59.441Z,7.6
2019-02-08T17:21:59.465Z,5.5
2019-02-08T17:24:59.855Z,5.9
2019-02-08T17:27:59.831Z,5.1
2019-02-08T17:30:59.528Z,5.3
2019-02-08T17:33:59.985Z,5.2
2019-02-08T17:37:00.282Z,16.8
2019-02-08T17:39:59.507Z,6.5
2019-02-08T17:42:59.797Z,7.4
2019-02-08T17:46:01.413Z,7.4
2019-02-08T17:48:59.333Z,8.8
2019-02-08T17:51:59.333Z,4.3
2019-02-08T17:54:59.404Z,5.8
2019-02-08T17:58:04.267Z,4.1
2019-02-08T18:00:59.616Z,5.3
2019-02-08T18:03:59.454Z,4.2
2019-02-08T18:06:59.398Z,5.8
2019-02-08T18:09:59.906Z,3.7
2019-02-08T18:12:59.473Z,4.8
2019-02-08T18:15:59.710Z,4.6
2019-02-08T18:18:59.526Z,3.5
2019-02-08T18:21:59.977Z,4.4
2019-02-08T18:24:59.499Z,4.6
2019-02-08T18:27:59.476Z,3.4
2019-02-08T18:30:59.930Z,6.2
2019-02-08T18:33:59.591Z,6.9
2019-02-08T18:36:59.804Z,8.5
2019-02-08T18:39:59.489Z,6.2
2019-02-08T18:42:59.372Z,6.1
2019-02-08T18:45:59.739Z,5.9
2019-02-08T18:48:59.378Z,5.6
2019-02-08T18:51:59.762Z,5.3
2019-02-08T18:54:59.371Z,5.1
2019-02-08T18:57:59.724Z,4.4
2019-02-08T19:00:59.436Z,5.8
2019-02-08T19:03:59.527Z,5.4
2019-02-08T19:06:59.385Z,5.7
2019-02-08T19:09:59.371Z,4.7
2019-02-08T19:12:59.885Z,4.7
2019-02-08T19:15:59.440Z,5.9
2019-02-08T19:18:59.362Z,3.3
2019-02-08T19:21:59.260Z,6.2
2019-02-08T19:24:59.299Z,3.2
2019-02-08T19:27:59.629Z,3.1
2019-02-08T19:30:59.390Z,3.6
2019-02-08T19:33:59.878Z,2.9
2019-02-08T19:36:59.923Z,3.4
2019-02-08T19:39:59.302Z,4
2019-02-08T19:42:59.626Z,5.1
2019-02-08T19:45:59.297Z,3.1
2019-02-08T19:48:59.172Z,3.7
2019-02-08T19:51:59.838Z,3
2019-02-08T19:54:59.368Z,3.1
2019-02-08T19:57:59.333Z,3
2019-02-08T20:00:59.994Z,4.5
2019-02-08T20:03:59.510Z,3
2019-02-08T20:06:59.400Z,4.1
2019-02-08T20:09:59.340Z,3.2
2019-02-08T20:13:00.190Z,5.4
2019-02-08T20:15:59.900Z,6.5
2019-02-08T20:18:59.318Z,3.4
2019-02-08T20:22:00.052Z,4.4
2019-02-08T20:25:00.244Z,3.5
2019-02-08T20:27:59.385Z,3.5
2019-02-08T20:30:59.875Z,3.4
2019-02-08T20:34:01.206Z,3.3
2019-02-08T20:36:59.382Z,2.8
2019-02-08T20:40:00.259Z,3.4
2019-02-08T20:42:59.965Z,2.7
2019-02-08T20:45:59.981Z,5.5
2019-02-08T20:48:59.416Z,4.3
2019-02-08T20:51:59.927Z,5.1
2019-02-08T20:54:59.589Z,6.5
2019-02-08T20:57:59.683Z,4.3
2019-02-08T21:00:59.406Z,3.8
2019-02-08T21:03:59.370Z,5
2019-02-08T21:06:59.353Z,4.6
2019-02-08T21:09:59.549Z,3.7
2019-02-08T21:12:59.333Z,5.1
2019-02-08T21:15:59.304Z,5.1
2019-02-08T21:18:59.297Z,6.1
2019-02-08T21:21:59.970Z,3.6
2019-02-08T21:24:59.408Z,4.2
2019-02-08T21:27:59.794Z,4.8
2019-02-08T21:30:59.801Z,3.3
2019-02-08T21:33:59.534Z,3.4
2019-02-08T21:37:00.562Z,4
2019-02-08T21:39:59.507Z,3.4
2019-02-08T21:42:59.309Z,4.1
2019-02-08T21:46:00.222Z,3.9
2019-02-08T21:48:59.349Z,3.2
2019-02-08T21:52:00.159Z,3.8
2019-02-08T21:54:59.437Z,3.3
2019-02-08T21:58:00.198Z,3.7
2019-02-08T22:01:00.463Z,4.8
2019-02-08T22:03:59.437Z,3.8
2019-02-08T22:07:00.005Z,3.1
2019-02-08T22:09:59.480Z,3.5
2019-02-08T22:13:00.048Z,3.6
2019-02-08T22:15:59.849Z,4
2019-02-08T22:18:59.852Z,3.6
2019-02-08T22:21:59.123Z,3.3
2019-02-08T22:24:59.104Z,3.2
2019-02-08T22:28:00.397Z,3
2019-02-08T22:30:59.626Z,3
2019-02-08T22:33:59.341Z,2.7
2019-02-08T22:36:59.669Z,3.2
2019-02-08T22:39:59.337Z,3.5
2019-02-08T22:42:59.817Z,2.7
2019-02-08T22:45:59.535Z,4.4
2019-02-08T22:48:59.871Z,3.7
2019-02-08T22:51:59.479Z,2.8
2019-02-08T22:55:01.117Z,3.8
2019-02-08T22:57:59.438Z,3.8
2019-02-08T23:00:59.916Z,3.4
2019-02-08T23:03:59.228Z,2.9
2019-02-08T23:06:59.405Z,2.4
2019-02-08T23:10:00.502Z,3.1
2019-02-08T23:12:59.705Z,2.7
2019-02-08T23:15:59.736Z,2.9
2019-02-08T23:19:00.357Z,2.6
2019-02-08T23:22:00.892Z,2.9
2019-02-08T23:24:59.376Z,2.7
2019-02-08T23:27:59.512Z,3.1
2019-02-08T23:31:00.135Z,2.9
2019-02-08T23:33:59.203Z,2.6
2019-02-08T23:36:59.892Z,2.5
2019-02-08T23:39:59.377Z,2.5
2019-02-08T23:43:00.031Z,2.9
2019-02-08T23:45:59.991Z,2.9
2019-02-08T23:49:00.705Z,2.5
2019-02-08T23:51:59.510Z,3
2019-02-08T23:54:59.648Z,2.9
2019-02-08T23:57:59.519Z,2.5
